Time;durP1;ratioP1;P1;durP2;ratioP2;P2;SDS_P1;SDS_P2;PMS_P1;PMS_P2;Temp;Humidity;BMP_temperature;BMP_pressure;BME280_temperature;BME280_humidity;BME280_pressure;Samples;Min_cycle;Max_cycle;Signal;HPM_P1;HPM_P2
2022/07/07 00:01:48;;;;;;;2.90;2.60;;;;;;;14.52;79.07;99972.28;5070907;28;20141;-88
2022/07/07 00:04:14;;;;;;;3.05;2.05;;;;;;;14.48;78.91;99971.59;5070407;28;20055;-88
2022/07/07 00:06:39;;;;;;;3.25;2.05;;;;;;;14.39;79.59;99959.00;5070572;28;20063;-88
2022/07/07 00:09:05;;;;;;;3.53;2.63;;;;;;;14.46;79.64;99974.31;5070732;28;20025;-88
2022/07/07 00:11:30;;;;;;;2.67;2.00;;;;;;;14.48;79.96;99966.34;5070863;28;20029;-88
2022/07/07 00:13:56;;;;;;;7.85;2.67;;;;;;;14.51;80.63;99965.38;5070544;28;20121;-88
2022/07/07 00:16:22;;;;;;;2.88;2.10;;;;;;;14.55;79.18;99964.25;5070685;28;20024;-88
2022/07/07 00:18:47;;;;;;;2.50;2.30;;;;;;;14.57;79.82;99965.84;5089499;28;20566;-88
2022/07/07 00:21:13;;;;;;;3.35;1.85;;;;;;;14.48;79.45;99954.13;5072416;28;20061;-88
2022/07/07 00:23:39;;;;;;;3.50;2.20;;;;;;;14.50;79.85;99961.06;5072626;28;20590;-88
2022/07/07 00:26:05;;;;;;;4.40;2.30;;;;;;;14.47;80.31;99948.94;5089131;28;20055;-88
2022/07/07 00:28:31;;;;;;;5.10;2.33;;;;;;;14.60;80.30;99952.56;5072527;28;20083;-87
2022/07/07 00:30:56;;;;;;;5.30;3.15;;;;;;;14.63;79.55;99967.28;5089285;28;20032;-87
2022/07/07 00:33:22;;;;;;;3.90;2.30;;;;;;;14.65;81.31;99965.41;5074166;28;20063;-87
2022/07/07 00:35:47;;;;;;;5.25;2.65;;;;;;;14.67;81.23;99963.53;5093957;28;20032;-87
2022/07/07 00:38:13;;;;;;;3.25;2.60;;;;;;;14.66;81.11;99956.59;5076455;28;20370;-88
2022/07/07 00:40:38;;;;;;;5.40;2.92;;;;;;;14.68;80.99;99957.38;5093603;28;20028;-87
2022/07/07 00:43:04;;;;;;;4.18;2.40;;;;;;;14.68;81.17;99954.75;5093318;28;20122;-86
2022/07/07 00:45:30;;;;;;;3.17;2.40;;;;;;;14.68;80.02;99960.81;5076461;28;20098;-86
2022/07/07 00:47:55;;;;;;;2.60;2.38;;;;;;;14.70;79.49;99958.09;5093135;28;20036;-86
2022/07/07 00:50:21;;;;;;;3.63;2.70;;;;;;;14.57;79.10;99938.78;5073999;28;20127;-87
2022/07/07 00:52:47;;;;;;;5.10;3.00;;;;;;;14.65;78.89;99952.28;5074244;28;20028;-86
2022/07/07 00:55:13;;;;;;;3.22;2.45;;;;;;;14.65;78.61;99945.25;5075312;28;20442;-86
2022/07/07 00:57:39;;;;;;;6.28;3.13;;;;;;;14.72;77.72;99953.63;5074295;28;20123;-86
2022/07/07 01:00:09;;;;;;;5.03;2.88;;;;;;;14.68;77.98;99945.09;5075279;28;20475;-85
2022/07/07 01:02:35;;;;;;;6.47;2.80;;;;;;;14.76;77.67;99956.91;5075509;28;20098;-86
2022/07/07 01:05:04;;;;;;;8.40;3.33;;;;;;;14.75;77.84;99950.84;5073674;28;20131;-86
2022/07/07 01:07:30;;;;;;;4.97;3.47;;;;;;;14.69;78.19;99940.69;5074062;28;20028;-86
2022/07/07 01:09:57;;;;;;;4.47;3.30;;;;;;;14.78;78.65;99947.16;5073905;28;20097;-86
2022/07/07 01:12:23;;;;;;;5.20;3.40;;;;;;;14.77;79.34;99948.94;5073988;28;20024;-87
2022/07/07 01:14:48;;;;;;;4.18;3.20;;;;;;;14.73;80.85;99934.34;5075196;28;20036;-86
2022/07/07 01:17:14;;;;;;;6.22;3.50;;;;;;;14.78;81.22;99937.53;5073602;28;20021;-86
2022/07/07 01:19:39;;;;;;;4.82;3.15;;;;;;;14.79;80.87;99935.75;5073891;28;20031;-87
2022/07/07 01:22:13;;;;;;;3.80;2.47;;;;;;;14.78;81.32;99928.81;5073710;28;20025;-86
2022/07/07 01:24:39;;;;;;;6.78;2.97;;;;;;;14.81;81.58;99936.50;5073775;28;20380;-87
2022/07/07 01:27:12;;;;;;;5.80;3.47;;;;;;;14.78;81.93;99932.28;5073468;28;20070;-87
2022/07/07 01:29:39;;;;;;;4.60;2.95;;;;;;;14.67;82.86;99911.94;5073592;28;20426;-87
2022/07/07 01:32:05;;;;;;;5.18;2.90;;;;;;;14.69;83.73;99922.34;5073169;28;20051;-86
2022/07/07 01:34:31;;;;;;;6.03;3.10;;;;;;;14.72;84.55;99927.41;5073702;28;20036;-86
2022/07/07 01:36:57;;;;;;;3.88;3.00;;;;;;;14.74;85.44;99925.53;5073576;28;20537;-86
2022/07/07 01:39:22;;;;;;;4.32;3.05;;;;;;;14.65;84.55;99905.94;5073482;28;20033;-86
2022/07/07 01:41:48;;;;;;;5.22;2.92;;;;;;;14.77;84.40;99912.25;5073540;28;20067;-86
2022/07/07 01:44:13;;;;;;;5.05;2.80;;;;;;;14.73;84.33;99901.09;5072511;28;20445;-86
2022/07/07 01:46:38;;;;;;;4.32;2.92;;;;;;;14.85;84.31;99920.50;5072854;28;20074;-85
2022/07/07 01:49:04;;;;;;;8.02;3.00;;;;;;;14.81;83.98;99915.53;5073178;28;20029;-86
2022/07/07 01:51:29;;;;;;;5.95;2.95;;;;;;;14.78;84.44;99907.84;5073429;28;20030;-86
2022/07/07 01:53:54;;;;;;;6.97;3.00;;;;;;;14.82;84.58;99909.34;5074589;28;20043;-86
2022/07/07 01:56:20;;;;;;;7.90;2.60;;;;;;;14.78;85.27;99907.84;5073009;28;20032;-86
2022/07/07 01:58:45;;;;;;;3.95;2.92;;;;;;;14.76;86.08;99902.69;5073144;28;20491;-86
2022/07/07 02:01:11;;;;;;;4.65;2.92;;;;;;;14.76;85.91;99901.84;5072847;28;20088;-86
2022/07/07 02:03:36;;;;;;;3.80;3.15;;;;;;;14.73;85.51;99903.72;5073074;28;20048;-86
2022/07/07 02:06:02;;;;;;;4.43;2.83;;;;;;;14.71;85.72;99899.50;5072842;28;20131;-86
2022/07/07 02:08:27;;;;;;;5.00;3.22;;;;;;;14.64;86.11;99896.41;5073057;28;20021;-86
2022/07/07 02:13:36;;;;;;;4.35;2.90;;;;;;;14.71;87.07;99899.50;5074271;28;20044;-86
2022/07/07 02:16:02;;;;;;;3.85;3.00;;;;;;;14.64;86.50;99888.53;5072682;28;20055;-86
2022/07/07 02:18:32;;;;;;;5.50;2.95;;;;;;;14.66;86.71;99899.78;5074159;28;20024;-87
2022/07/07 02:20:58;;;;;;;5.78;3.25;;;;;;;14.58;86.24;99886.28;5072767;28;20020;-86
2022/07/07 02:23:23;;;;;;;4.05;3.10;;;;;;;14.66;86.22;99891.94;5072391;28;20451;-86
2022/07/07 02:25:48;;;;;;;4.20;3.28;;;;;;;14.64;86.17;99893.78;5073926;28;20024;-86
2022/07/07 02:28:14;;;;;;;5.82;3.50;;;;;;;14.67;86.73;99911.13;5072242;28;20059;-86
2022/07/07 02:30:39;;;;;;;6.70;3.30;;;;;;;14.61;87.15;99899.19;5072808;28;20052;-86
2022/07/07 02:33:06;;;;;;;6.20;3.67;;;;;;;14.60;84.98;99904.53;5072355;28;20024;-86
2022/07/07 02:35:32;;;;;;;6.55;3.58;;;;;;;14.50;83.00;99898.16;5072544;28;20024;-87
2022/07/07 02:37:57;;;;;;;4.82;3.72;;;;;;;14.51;82.47;99905.94;5072271;28;20356;-86
2022/07/07 02:40:22;;;;;;;7.90;3.67;;;;;;;14.41;83.21;99889.00;5073298;28;20025;-86
2022/07/07 02:42:48;;;;;;;4.78;3.38;;;;;;;14.54;84.08;99910.13;5072112;28;20029;-86
2022/07/07 02:45:13;;;;;;;8.02;3.95;;;;;;;14.54;84.27;99912.75;5072106;28;20023;-87
2022/07/07 02:47:38;;;;;;;5.20;3.78;;;;;;;14.49;84.91;99899.91;5073603;28;20029;-87
2022/07/07 02:50:04;;;;;;;6.80;3.50;;;;;;;14.52;84.89;99912.84;5071996;28;20028;-87
2022/07/07 02:52:29;;;;;;;5.20;3.47;;;;;;;14.44;85.76;99894.91;5090852;28;20036;-87
2022/07/07 02:54:55;;;;;;;5.88;3.63;;;;;;;14.53;85.91;99909.28;5090911;28;20549;-86
2022/07/07 02:57:20;;;;;;;6.57;3.42;;;;;;;14.53;86.40;99911.91;5073492;28;20125;-86
2022/07/07 02:59:46;;;;;;;4.78;3.33;;;;;;;14.42;86.70;99895.97;5073996;28;20035;-86
2022/07/07 03:02:11;;;;;;;5.38;3.53;;;;;;;14.42;87.12;99901.19;5073643;28;20039;-87
2022/07/07 03:04:37;;;;;;;4.38;3.13;;;;;;;14.43;88.25;99906.34;5090652;28;20063;-86
2022/07/07 03:07:02;;;;;;;5.72;3.50;;;;;;;14.37;89.01;99901.47;5073622;28;20098;-86
2022/07/07 03:09:27;;;;;;;4.43;3.28;;;;;;;14.34;89.61;99899.00;5090738;28;20036;-86
2022/07/07 03:11:53;;;;;;;4.55;3.30;;;;;;;14.36;90.14;99907.63;5073628;28;20123;-86
2022/07/07 03:14:18;;;;;;;4.32;3.17;;;;;;;14.38;90.49;99894.44;5090357;28;20490;-86
2022/07/07 03:16:44;;;;;;;4.07;3.30;;;;;;;14.30;89.86;99881.78;5073637;28;20494;-86
2022/07/07 03:19:09;;;;;;;4.65;3.60;;;;;;;14.31;88.93;99901.81;5090410;28;20071;-86
2022/07/07 03:21:34;;;;;;;4.00;3.28;;;;;;;14.30;89.70;99896.66;5090440;28;20031;-86
2022/07/07 03:24:00;;;;;;;6.22;3.92;;;;;;;14.22;89.56;99884.00;5070972;28;20056;-86
2022/07/07 03:26:25;;;;;;;5.63;3.90;;;;;;;14.19;89.83;99873.69;5071028;28;20035;-85
2022/07/07 03:28:51;;;;;;;4.95;3.58;;;;;;;14.27;89.78;99888.97;5071280;28;20485;-86
2022/07/07 03:31:16;;;;;;;4.22;3.38;;;;;;;14.18;88.96;99869.41;5071204;28;20033;-86
2022/07/07 03:33:41;;;;;;;8.65;4.15;;;;;;;14.36;87.82;99885.81;5069867;28;20121;-86
2022/07/07 03:36:07;;;;;;;5.85;4.20;;;;;;;14.36;87.33;99891.06;5053070;28;20707;-86
2022/07/07 03:38:33;;;;;;;5.68;4.03;;;;;;;14.25;87.27;99872.53;5089878;28;20498;-86
2022/07/07 03:40:58;;;;;;;8.30;4.40;;;;;;;14.26;87.89;99879.44;5090165;28;20067;-86
2022/07/07 03:43:24;;;;;;;9.52;4.43;;;;;;;14.21;88.46;99882.31;5072876;28;20139;-88
2022/07/07 03:45:50;;;;;;;6.05;4.57;;;;;;;14.10;88.66;99872.44;5090065;28;20118;-88
2022/07/07 03:48:16;;;;;;;6.93;4.13;;;;;;;14.02;88.71;99873.81;5089864;28;20032;-87
2022/07/07 03:50:42;;;;;;;7.57;4.40;;;;;;;14.11;89.02;99886.38;5110320;28;20494;-87
2022/07/07 03:53:07;;;;;;;8.38;4.22;;;;;;;14.11;88.47;99882.00;5110071;28;20043;-88
2022/07/07 03:55:33;;;;;;;7.00;4.78;;;;;;;14.11;87.25;99884.59;5093130;28;20134;-87
2022/07/07 03:57:59;;;;;;;6.75;4.35;;;;;;;14.15;87.36;99878.25;5093090;28;20036;-87
2022/07/07 04:00:24;;;;;;;9.57;4.10;;;;;;;14.27;88.11;99886.34;5092780;28;20032;-87
2022/07/07 04:02:49;;;;;;;8.23;4.57;;;;;;;14.31;89.08;99875.59;5092879;28;20031;-87
2022/07/07 04:05:15;;;;;;;5.80;4.65;;;;;;;14.52;88.40;99888.41;5092456;28;20036;-88
2022/07/07 04:07:40;;;;;;;7.80;4.82;;;;;;;14.58;88.25;99882.78;5092481;28;20157;-87
2022/07/07 04:10:06;;;;;;;5.47;4.30;;;;;;;14.68;88.28;99887.41;5078493;28;20040;-87
2022/07/07 04:12:32;;;;;;;8.40;4.60;;;;;;;14.75;88.22;99876.56;5072516;28;20538;-86
2022/07/07 04:14:57;;;;;;;5.82;4.40;;;;;;;14.79;88.04;99863.19;5072738;28;20114;-88
2022/07/07 04:17:23;;;;;;;5.70;4.30;;;;;;;14.90;87.33;99859.91;5089416;28;20437;-87
2022/07/07 04:19:48;;;;;;;7.35;4.30;;;;;;;15.05;86.91;99866.00;5072723;28;20475;-88
2022/07/07 04:22:13;;;;;;;7.40;4.65;;;;;;;15.30;85.41;99860.06;5070020;28;20131;-87
2022/07/07 04:24:39;;;;;;;6.43;4.00;;;;;;;15.36;84.36;99859.66;5070610;28;20051;-88
2022/07/07 04:27:05;;;;;;;6.47;4.20;;;;;;;15.38;84.32;99863.91;5070395;28;20064;-88
2022/07/07 04:29:31;;;;;;;7.80;4.45;;;;;;;15.33;85.25;99855.44;5070461;28;20024;-88
2022/07/07 04:31:56;;;;;;;7.90;4.43;;;;;;;15.29;86.02;99853.13;5070580;28;20082;-87
2022/07/07 04:34:22;;;;;;;10.23;4.28;;;;;;;15.26;87.00;99858.56;5070372;28;20483;-87
2022/07/07 04:36:48;;;;;;;7.78;4.53;;;;;;;15.23;87.63;99862.22;5070605;28;20115;-87
2022/07/07 04:39:13;;;;;;;4.65;3.80;;;;;;;15.15;87.70;99846.13;5070219;28;20471;-87
2022/07/07 04:41:38;;;;;;;7.80;4.45;;;;;;;15.26;87.60;99858.56;5070272;28;20016;-88
2022/07/07 04:44:05;;;;;;;7.25;3.95;;;;;;;15.25;86.88;99841.97;5070537;28;20054;-88
2022/07/07 04:46:31;;;;;;;9.10;4.60;;;;;;;15.27;86.94;99847.13;5070199;28;20036;-87
2022/07/07 04:48:56;;;;;;;7.82;4.00;;;;;;;15.31;87.17;99853.88;5070422;28;20028;-87
2022/07/07 04:51:22;;;;;;;8.75;4.72;;;;;;;15.33;87.57;99844.09;5070136;28;20472;-87
2022/07/07 04:53:47;;;;;;;6.95;5.00;;;;;;;15.31;86.88;99833.72;5070341;28;20040;-88
2022/07/07 04:56:13;;;;;;;6.18;4.35;;;;;;;15.49;87.26;99847.44;5070132;28;20031;-88
2022/07/07 04:58:38;;;;;;;9.30;4.43;;;;;;;15.56;86.89;99847.91;5070477;28;20033;-87
2022/07/07 05:01:04;;;;;;;5.70;4.50;;;;;;;15.61;85.91;99840.56;5071553;28;20031;-87
2022/07/07 05:03:29;;;;;;;6.53;3.80;;;;;;;15.73;85.21;99852.13;5069866;28;20494;-87
2022/07/07 05:05:54;;;;;;;10.05;5.35;;;;;;;15.74;83.92;99845.91;5070014;28;20060;-88
2022/07/07 05:08:20;;;;;;;6.25;4.30;;;;;;;15.79;83.13;99843.81;5069962;28;20028;-87
2022/07/07 05:10:45;;;;;;;8.25;4.28;;;;;;;15.88;82.93;99846.69;5069982;28;20032;-87
2022/07/07 05:13:11;;;;;;;6.65;4.10;;;;;;;15.86;83.49;99830.19;5070187;28;20025;-88
2022/07/07 05:15:36;;;;;;;6.75;3.78;;;;;;;15.95;82.91;99840.09;5070283;28;20033;-87
2022/07/07 05:18:01;;;;;;;5.88;4.25;;;;;;;15.98;83.25;99835.59;5071462;28;20028;-87
2022/07/07 05:20:27;;;;;;;8.13;5.05;;;;;;;16.09;82.56;99843.59;5074565;28;20501;-87
2022/07/07 05:22:52;;;;;;;6.90;4.78;;;;;;;16.12;82.23;99840.78;5073801;28;20111;-88
2022/07/07 05:25:18;;;;;;;9.48;4.97;;;;;;;16.17;82.30;99838.66;5073233;28;20021;-88
2022/07/07 05:27:44;;;;;;;6.90;4.88;;;;;;;16.17;81.13;99836.88;5073869;28;20487;-87
2022/07/07 05:30:12;;;;;;;8.25;4.72;;;;;;;16.28;80.92;99838.81;5073840;28;20593;-88
2022/07/07 05:32:37;;;;;;;6.65;4.35;;;;;;;16.35;81.43;99841.84;5073547;28;20024;-87
2022/07/07 05:35:03;;;;;;;6.97;5.07;;;;;;;16.34;81.77;99829.66;5075160;28;20541;-87
2022/07/07 05:37:28;;;;;;;5.60;4.15;;;;;;;16.40;80.82;99835.34;5073249;28;20541;-88
2022/07/07 05:39:54;;;;;;;5.55;3.70;;;;;;;16.44;80.67;99842.09;5073341;28;20020;-87
2022/07/07 05:42:19;;;;;;;6.97;4.25;;;;;;;16.46;80.57;99844.59;5073282;28;20479;-87
2022/07/07 05:44:44;;;;;;;7.05;4.55;;;;;;;16.46;79.76;99840.19;5073456;28;20550;-88
2022/07/07 05:47:10;;;;;;;6.15;4.10;;;;;;;16.49;78.21;99840.94;5073430;28;20476;-87
2022/07/07 05:49:35;;;;;;;8.60;4.03;;;;;;;16.50;78.30;99832.94;5072892;28;20028;-88
2022/07/07 05:52:00;;;;;;;5.43;3.30;;;;;;;16.52;78.88;99832.81;5073189;28;20058;-88
2022/07/07 05:54:26;;;;;;;4.70;3.42;;;;;;;16.48;78.88;99826.94;5072889;28;20031;-88
2022/07/07 05:56:51;;;;;;;6.55;4.00;;;;;;;16.53;79.31;99840.63;5073690;28;20105;-87
2022/07/07 05:59:16;;;;;;;6.40;3.70;;;;;;;16.47;79.07;99830.50;5072995;28;20017;-87
2022/07/07 06:01:42;;;;;;;5.13;3.60;;;;;;;16.55;78.76;99835.25;5064966;28;20032;-88
2022/07/07 06:04:08;;;;;;;8.05;3.85;;;;;;;16.62;79.13;99834.72;5073128;28;20071;-87
2022/07/07 06:06:33;;;;;;;6.63;3.60;;;;;;;17.05;78.57;99842.28;5072324;28;20031;-88
2022/07/07 06:08:58;;;;;;;6.45;3.45;;;;;;;17.48;76.88;99830.50;5072589;28;20024;-87
2022/07/07 06:11:24;;;;;;;9.65;3.70;;;;;;;17.96;74.11;99823.47;5074027;28;20020;-88
2022/07/07 06:13:49;;;;;;;5.05;3.70;;;;;;;18.64;69.99;99842.91;5072730;28;20395;-88
2022/07/07 06:16:14;;;;;;;7.22;3.70;;;;;;;19.43;67.78;99827.94;5073005;28;20027;-88
2022/07/07 06:18:40;;;;;;;7.40;3.33;;;;;;;20.09;64.76;99823.38;5072912;28;20039;-88
2022/07/07 06:21:06;;;;;;;6.72;3.70;;;;;;;20.63;62.64;99822.34;5072581;28;20048;-88
2022/07/07 06:23:31;;;;;;;7.25;3.25;;;;;;;21.24;60.44;99817.97;5072327;28;20036;-88
2022/07/07 06:25:57;;;;;;;5.28;3.38;;;;;;;21.71;57.67;99813.78;5072403;28;20025;-88
2022/07/07 06:28:22;;;;;;;4.65;2.85;;;;;;;21.80;55.85;99806.81;5072489;28;20061;-88
2022/07/07 06:30:47;;;;;;;5.35;2.83;;;;;;;21.83;54.99;99819.78;5072181;28;20115;-88
2022/07/07 06:33:13;;;;;;;5.22;2.80;;;;;;;21.80;55.23;99817.41;5074092;28;20039;-88
2022/07/07 06:35:38;;;;;;;4.97;2.88;;;;;;;21.71;55.56;99816.44;5072046;28;20051;-88
2022/07/07 06:38:03;;;;;;;8.35;3.42;;;;;;;21.88;55.37;99815.72;5072135;28;20113;-88
2022/07/07 06:40:29;;;;;;;4.97;2.72;;;;;;;22.25;54.22;99814.19;5071682;28;20020;-88
2022/07/07 06:42:54;;;;;;;4.97;2.70;;;;;;;22.80;51.94;99809.03;5073503;28;20035;-89
2022/07/07 06:45:19;;;;;;;4.45;2.40;;;;;;;23.23;50.58;99813.72;5071735;28;20458;-88
2022/07/07 06:47:45;;;;;;;7.93;3.00;;;;;;;23.04;50.07;99806.69;5072012;28;20624;-88
2022/07/07 06:50:10;;;;;;;3.95;2.63;;;;;;;22.96;49.42;99805.75;5071769;28;20082;-88
2022/07/07 06:52:36;;;;;;;4.32;2.60;;;;;;;23.24;48.87;99795.97;5071749;28;20029;-89
2022/07/07 06:55:03;;;;;;;3.58;1.90;;;;;;;23.73;46.90;99797.34;5072271;28;20066;-89
2022/07/07 06:57:28;;;;;;;3.78;2.20;;;;;;;24.11;46.17;99801.47;5071985;28;20024;-88
2022/07/07 06:59:54;;;;;;;2.83;2.10;;;;;;;24.64;46.06;99802.34;5072049;28;20031;-88
2022/07/07 07:02:19;;;;;;;7.70;2.60;;;;;;;25.18;43.62;99781.63;5052437;28;20048;-88
2022/07/07 07:04:46;;;;;;;4.30;2.80;;;;;;;25.39;42.29;99782.00;5051601;28;20492;-88
2022/07/07 07:07:12;;;;;;;6.13;2.78;;;;;;;25.59;41.96;99790.53;5051685;28;20024;-84
2022/07/07 07:09:37;;;;;;;3.28;2.50;;;;;;;25.71;42.01;99787.56;5052836;28;20378;-83
2022/07/07 07:12:03;;;;;;;3.33;2.60;;;;;;;26.07;39.93;99788.06;5053435;28;20048;-83
2022/07/07 07:14:28;;;;;;;4.60;2.45;;;;;;;26.50;39.17;99789.53;5051459;28;20029;-83
2022/07/07 07:16:53;;;;;;;3.38;2.13;;;;;;;26.84;39.08;99793.78;5051590;28;20113;-84
2022/07/07 07:19:19;;;;;;;2.97;2.20;;;;;;;26.84;37.04;99788.44;5052717;28;20035;-83
2022/07/07 07:21:44;;;;;;;3.83;2.20;;;;;;;26.58;37.39;99778.00;5052740;28;20029;-83
2022/07/07 07:24:11;;;;;;;5.00;2.50;;;;;;;26.43;38.84;99785.03;5051412;28;20061;-83
2022/07/07 07:26:37;;;;;;;6.70;2.17;;;;;;;26.21;39.39;99792.75;5052713;28;20024;-83
2022/07/07 07:29:03;;;;;;;3.60;1.80;;;;;;;25.95;38.84;99784.91;5052854;28;20040;-83
2022/07/07 07:31:28;;;;;;;4.40;1.70;;;;;;;25.69;38.91;99770.88;5051199;28;20025;-83
2022/07/07 07:33:53;;;;;;;2.53;1.70;;;;;;;25.65;39.07;99770.38;5051273;28;20025;-83
2022/07/07 07:36:19;;;;;;;3.78;1.80;;;;;;;25.71;38.26;99772.38;5052523;28;20093;-83
2022/07/07 07:38:44;;;;;;;2.97;1.60;;;;;;;25.91;38.07;99767.56;5052153;28;20044;-84
2022/07/07 07:41:11;;;;;;;4.45;1.95;;;;;;;25.92;38.07;99755.06;5052591;28;20033;-83
2022/07/07 07:43:37;;;;;;;1.67;1.27;;;;;;;26.13;37.12;99782.09;5051406;28;20021;-83
2022/07/07 07:46:02;;;;;;;1.75;1.30;;;;;;;25.92;38.24;99774.59;5052359;28;20025;-83
2022/07/07 07:48:28;;;;;;;3.63;1.65;;;;;;;25.73;38.78;99775.72;5052405;28;20090;-84
2022/07/07 07:50:53;;;;;;;4.45;1.98;;;;;;;25.67;38.93;99764.88;5052269;28;20028;-84
2022/07/07 07:53:19;;;;;;;3.30;1.65;;;;;;;25.69;38.18;99769.03;5052063;28;20480;-84
2022/07/07 07:55:44;;;;;;;4.15;1.50;;;;;;;25.88;38.53;99762.59;5050833;28;20025;-84
2022/07/07 07:58:10;;;;;;;3.65;1.30;;;;;;;26.33;37.17;99769.19;5052320;28;20106;-84
2022/07/07 08:00:35;;;;;;;3.78;1.33;;;;;;;26.54;37.24;99755.31;5050746;28;20021;-84
2022/07/07 08:03:01;;;;;;;2.92;1.30;;;;;;;26.63;35.89;99770.28;5059915;28;20032;-83
2022/07/07 08:05:26;;;;;;;3.65;1.63;;;;;;;26.43;37.30;99769.84;5070477;28;20032;-83
2022/07/07 08:07:52;;;;;;;2.38;1.38;;;;;;;26.12;36.97;99753.69;5072018;28;20028;-83
2022/07/07 08:10:17;;;;;;;3.53;1.45;;;;;;;26.00;37.25;99750.56;5072432;28;20025;-83
2022/07/07 08:12:43;;;;;;;3.22;1.42;;;;;;;26.18;37.82;99763.72;5070552;28;20361;-83
2022/07/07 08:15:09;;;;;;;4.32;1.35;;;;;;;26.24;36.65;99757.69;5072046;28;20056;-83
2022/07/07 08:17:35;;;;;;;1.98;1.50;;;;;;;26.23;36.96;99749.84;5071765;28;20035;-83
2022/07/07 08:20:01;;;;;;;1.75;1.30;;;;;;;26.18;36.16;99744.19;5072215;28;20020;-83
2022/07/07 08:22:26;;;;;;;3.17;1.30;;;;;;;26.04;35.30;99756.38;5071526;28;20025;-84
2022/07/07 08:24:53;;;;;;;2.20;1.30;;;;;;;25.89;36.37;99748.22;5071959;28;20099;-83
2022/07/07 08:27:18;;;;;;;1.25;1.10;;;;;;;25.72;36.46;99746.53;5072076;28;20032;-83
2022/07/07 08:29:44;;;;;;;1.92;1.30;;;;;;;25.45;35.90;99747.66;5070424;28;20028;-83
2022/07/07 08:32:11;;;;;;;3.10;1.35;;;;;;;25.25;37.07;99748.00;5070582;28;20064;-83
2022/07/07 08:34:37;;;;;;;3.40;1.58;;;;;;;24.93;37.23;99738.03;5071613;28;20024;-83
2022/07/07 08:37:03;;;;;;;1.70;1.10;;;;;;;24.63;37.75;99736.75;5071728;28;20028;-83
2022/07/07 08:39:28;;;;;;;2.45;1.05;;;;;;;24.52;37.48;99737.03;5071398;28;20383;-83
2022/07/07 08:41:53;;;;;;;4.00;1.42;;;;;;;24.39;38.12;99738.28;5071973;28;20032;-83
2022/07/07 08:44:20;;;;;;;3.25;1.55;;;;;;;24.30;36.95;99735.72;5071763;28;20052;-83
2022/07/07 08:46:46;;;;;;;2.63;1.70;;;;;;;24.19;38.04;99746.63;5071425;28;20090;-83
2022/07/07 08:49:11;;;;;;;2.83;1.50;;;;;;;24.03;37.78;99734.88;5071794;28;20403;-82
2022/07/07 08:51:41;;;;;;;2.28;1.42;;;;;;;23.97;38.78;99742.66;5071269;28;20042;-83
2022/07/07 08:54:09;;;;;;;4.80;1.40;;;;;;;23.92;38.30;99742.28;5071722;28;20071;-83
2022/07/07 08:56:36;;;;;;;2.10;1.13;;;;;;;23.74;39.06;99735.16;5074249;28;20032;-83
2022/07/07 08:59:02;;;;;;;2.70;1.38;;;;;;;23.73;37.74;99732.69;5075535;28;20028;-83
2022/07/07 09:01:27;;;;;;;3.05;1.55;;;;;;;23.55;38.12;99727.31;5075564;28;20032;-83
2022/07/07 09:03:52;;;;;;;1.77;1.48;;;;;;;23.42;39.11;99722.38;5075454;28;20128;-83
2022/07/07 09:06:18;;;;;;;3.10;1.20;;;;;;;23.48;39.08;99735.09;5075582;28;20426;-83
2022/07/07 09:08:43;;;;;;;2.25;1.20;;;;;;;23.41;39.36;99718.91;5075295;28;20135;-83
2022/07/07 09:11:09;;;;;;;2.10;1.27;;;;;;;23.44;39.00;99716.94;5075467;28;20021;-83
2022/07/07 09:13:35;;;;;;;3.13;1.60;;;;;;;23.60;38.78;99722.41;5075060;28;20441;-83
2022/07/07 09:16:14;;;;;;;2.38;1.40;;;;;;;23.51;37.34;99705.53;5075221;28;20107;-83
2022/07/07 09:18:43;;;;;;;1.45;1.10;;;;;;;23.67;36.65;99726.13;5074920;28;20025;-83
2022/07/07 09:21:31;;;;;;;1.38;1.20;;;;;;;23.75;37.29;99720.88;5075256;28;20096;-83
2022/07/07 09:23:58;;;;;;;2.40;1.30;;;;;;;23.71;38.23;99714.19;5075057;28;20055;-83
2022/07/07 09:26:38;;;;;;;2.25;1.23;;;;;;;23.83;38.42;99728.09;5075024;28;20082;-83
2022/07/07 09:29:06;;;;;;;4.28;1.48;;;;;;;23.98;38.01;99725.72;5073543;28;20029;-82
2022/07/07 09:31:57;;;;;;;3.00;1.58;;;;;;;24.06;38.32;99721.28;5074831;28;20091;-83
2022/07/07 09:34:24;;;;;;;3.63;1.30;;;;;;;24.03;38.51;99702.13;5074852;28;20032;-83
2022/07/07 09:39:42;;;;;;;3.20;1.20;;;;;;;24.08;37.70;99703.31;5074629;28;20132;-83
2022/07/07 09:42:33;;;;;;;3.08;1.40;;;;;;;24.14;37.36;99718.69;5074808;28;20113;-83
2022/07/07 09:45:03;;;;;;;2.17;1.50;;;;;;;24.11;37.88;99697.69;5074597;28;20112;-82
2022/07/07 09:47:29;;;;;;;1.73;1.20;;;;;;;24.22;39.01;99711.72;5074411;28;20025;-83
2022/07/07 09:50:09;;;;;;;6.18;1.60;;;;;;;24.09;40.67;99722.78;5070002;28;20392;-83
2022/07/07 09:52:36;;;;;;;;;;;;;;;24.06;42.26;99741.72;5072468;28;20023;-83
2022/07/07 09:55:04;;;;;;;2.03;1.40;;;;;;;23.90;42.52;99731.81;5074635;28;19908;-83
2022/07/07 09:57:30;;;;;;;3.22;1.50;;;;;;;23.59;43.70;99731.34;5072910;28;20085;-83
2022/07/07 09:59:55;;;;;;;5.25;1.48;;;;;;;23.39;44.81;99755.44;5074451;28;20032;-82
2022/07/07 10:02:26;;;;;;;1.80;1.40;;;;;;;23.20;46.41;99752.06;5074274;28;20024;-82
2022/07/07 10:04:54;;;;;;;4.85;1.90;;;;;;;23.12;46.81;99761.63;5073713;28;20047;-83
2022/07/07 10:07:25;;;;;;;1.60;1.30;;;;;;;23.03;46.82;99743.09;5073373;28;20110;-82
2022/07/07 10:09:56;;;;;;;1.80;1.27;;;;;;;22.96;46.94;99753.47;5073899;28;20056;-82
2022/07/07 10:12:24;;;;;;;4.43;1.63;;;;;;;22.95;48.36;99756.28;5074113;28;20028;-83
2022/07/07 10:14:57;;;;;;;3.40;1.95;;;;;;;22.86;47.83;99764.09;5072480;28;20119;-83
2022/07/07 10:17:24;;;;;;;4.95;1.70;;;;;;;22.82;46.83;99772.53;5073943;28;20039;-82
2022/07/07 10:19:50;;;;;;;4.15;1.20;;;;;;;22.74;47.64;99783.88;5073893;28;20141;-82
2022/07/07 10:22:15;;;;;;;4.18;2.00;;;;;;;22.69;48.41;99774.69;5074016;28;20036;-82
2022/07/07 10:24:41;;;;;;;2.92;1.70;;;;;;;22.70;49.35;99779.00;5073680;28;20028;-82
2022/07/07 10:27:14;;;;;;;7.43;1.85;;;;;;;22.60;49.52;99776.38;5072506;28;20029;-82
2022/07/07 10:29:42;;;;;;;1.70;1.60;;;;;;;22.48;50.26;99778.38;5073437;28;20035;-82
2022/07/07 10:32:10;;;;;;;2.95;1.85;;;;;;;22.27;50.25;99770.63;5073758;28;20032;-82
2022/07/07 10:34:38;;;;;;;2.38;1.50;;;;;;;22.30;52.14;99777.47;5072317;28;20059;-82
2022/07/07 10:37:05;;;;;;;2.47;1.50;;;;;;;22.14;52.25;99762.97;5073684;28;20109;-82
2022/07/07 10:39:34;;;;;;;1.75;1.30;;;;;;;22.09;52.17;99764.34;5073710;28;20039;-82
2022/07/07 10:42:03;;;;;;;4.10;1.48;;;;;;;22.04;52.54;99780.69;5072160;28;20043;-82
2022/07/07 10:44:30;;;;;;;3.97;1.67;;;;;;;21.92;52.33;99768.56;5072387;28;20120;-82
2022/07/07 10:47:13;;;;;;;4.32;1.85;;;;;;;21.97;52.85;99782.22;5073297;28;20028;-82
2022/07/07 10:49:45;;;;;;;4.22;1.92;;;;;;;21.96;51.95;99775.25;5073159;28;20020;-82
2022/07/07 10:52:16;;;;;;;2.75;1.80;;;;;;;21.89;52.59;99764.38;5073257;28;20029;-82
2022/07/07 10:54:58;;;;;;;3.10;1.90;;;;;;;21.87;51.65;99761.03;5073338;28;20047;-82
2022/07/07 10:57:41;;;;;;;5.10;1.90;;;;;;;21.88;51.43;99760.03;5073418;28;20040;-82
2022/07/07 11:00:10;;;;;;;5.22;2.60;;;;;;;21.96;51.14;99774.44;5072054;28;20024;-82
2022/07/07 11:02:47;;;;;;;3.92;2.05;;;;;;;21.98;51.88;99770.63;5071536;28;20361;-82
2022/07/07 11:05:12;;;;;;;5.97;2.20;;;;;;;22.03;51.78;99768.38;5073196;28;20064;-83
2022/07/07 11:07:39;;;;;;;4.57;1.90;;;;;;;22.06;52.39;99767.28;5072509;28;20106;-83
2022/07/07 11:10:04;;;;;;;4.95;2.65;;;;;;;22.14;51.74;99775.41;5073073;28;20486;-83
2022/07/07 11:12:53;;;;;;;4.95;3.50;;;;;;;22.07;51.01;99759.16;5071799;28;20033;-82
2022/07/07 11:15:18;;;;;;;5.53;2.80;;;;;;;22.11;51.10;99757.91;5071659;28;20166;-82
2022/07/07 11:18:06;;;;;;;17.98;9.68;;;;;;;22.20;51.66;99758.06;5071430;28;20123;-82
2022/07/07 11:20:32;;;;;;;7.85;3.75;;;;;;;22.19;50.01;99748.44;5072971;28;20024;-82
2022/07/07 11:23:12;;;;;;;4.00;2.20;;;;;;;22.26;50.12;99757.50;5071690;28;20025;-82
2022/07/07 11:25:39;;;;;;;4.13;2.13;;;;;;;22.31;49.61;99755.25;5056297;28;20200;-83
2022/07/07 11:28:05;;;;;;;5.30;2.42;;;;;;;22.33;49.58;99751.47;5052130;28;20135;-81
2022/07/07 11:30:31;;;;;;;3.20;1.90;;;;;;;22.45;49.23;99749.47;5052739;28;20357;-81
2022/07/07 11:32:58;;;;;;;6.63;1.75;;;;;;;22.38;50.59;99735.97;5052443;28;20060;-81
2022/07/07 11:35:35;;;;;;;4.43;1.60;;;;;;;22.44;50.07;99736.34;5051338;28;20032;-81
2022/07/07 11:38:02;;;;;;;2.75;1.77;;;;;;;22.54;49.19;99745.09;5052417;28;20025;-83